sensor_id;sensor_type;location;lat;lon;timestamp;pressure;altitude;pressure_sealevel;temperature;humidity
13836;BME280;6988;52.614;13.500;2023-04-26T00:02:13;54637.56;;;-143.77;66.32
13836;BME280;6988;52.614;13.500;2023-04-26T00:07:05;54631.41;;;-143.77;66.16
13836;BME280;6988;52.614;13.500;2023-04-26T00:11:58;54680.66;;;-143.77;66.78
13836;BME280;6988;52.614;13.500;2023-04-26T00:16:50;54637.56;;;-143.77;66.72
13836;BME280;6988;52.614;13.500;2023-04-26T00:21:44;54666.28;;;-143.77;66.74
13836;BME280;6988;52.614;13.500;2023-04-26T00:26:36;54643.72;;;-143.77;67.11
13836;BME280;6988;52.614;13.500;2023-04-26T00:31:28;54635.50;;;-143.77;67.12
13836;BME280;6988;52.614;13.500;2023-04-26T00:36:26;54703.22;;;-143.77;66.79
13836;BME280;6988;52.614;13.500;2023-04-26T00:41:20;54662.19;;;-143.77;67.71
13836;BME280;6988;52.614;13.500;2023-04-26T00:46:13;54635.50;;;-143.77;67.70
13836;BME280;6988;52.614;13.500;2023-04-26T00:51:06;54651.91;;;-143.77;67.76
13836;BME280;6988;52.614;13.500;2023-04-26T00:55:58;54690.91;;;-143.77;68.12
13836;BME280;6988;52.614;13.500;2023-04-26T01:00:52;54692.97;;;-143.77;67.94
13836;BME280;6988;52.614;13.500;2023-04-26T01:05:44;54653.97;;;-143.77;67.98
13836;BME280;6988;52.614;13.500;2023-04-26T01:10:38;54664.22;;;-143.77;68.65
13836;BME280;6988;52.614;13.500;2023-04-26T01:15:30;54680.66;;;-143.77;68.52
13836;BME280;6988;52.614;13.500;2023-04-26T01:20:24;54686.81;;;-143.77;68.88
13836;BME280;6988;52.614;13.500;2023-04-26T01:25:18;54699.13;;;-143.77;69.29
13836;BME280;6988;52.614;13.500;2023-04-26T01:30:10;54684.75;;;-143.77;69.45
13836;BME280;6988;52.614;13.500;2023-04-26T01:35:03;54680.66;;;-143.77;69.55
13836;BME280;6988;52.614;13.500;2023-04-26T01:39:55;54672.44;;;-143.77;69.66
13836;BME280;6988;52.614;13.500;2023-04-26T01:44:49;54701.16;;;-143.77;70.09
13836;BME280;6988;52.614;13.500;2023-04-26T01:49:41;54707.31;;;-143.77;70.12
13836;BME280;6988;52.614;13.500;2023-04-26T01:54:33;54699.13;;;-143.77;70.42
13836;BME280;6988;52.614;13.500;2023-04-26T01:59:24;54690.91;;;-143.77;70.65
13836;BME280;6988;52.614;13.500;2023-04-26T02:04:18;54690.91;;;-143.77;71.02
13836;BME280;6988;52.614;13.500;2023-04-26T02:09:10;54672.44;;;-143.77;71.36
13836;BME280;6988;52.614;13.500;2023-04-26T02:14:04;54697.06;;;-143.77;71.31
13836;BME280;6988;52.614;13.500;2023-04-26T02:18:56;54707.31;;;-143.77;71.44
13836;BME280;6988;52.614;13.500;2023-04-26T02:23:50;54684.75;;;-143.77;71.62
13836;BME280;6988;52.614;13.500;2023-04-26T02:28:42;54664.22;;;-143.77;71.72
13836;BME280;6988;52.614;13.500;2023-04-26T02:33:34;54713.47;;;-143.77;72.06
13836;BME280;6988;52.614;13.500;2023-04-26T02:38:25;54738.09;;;-143.77;72.10
13836;BME280;6988;52.614;13.500;2023-04-26T02:43:19;54672.44;;;-143.77;72.35
13836;BME280;6988;52.614;13.500;2023-04-26T02:48:11;54705.28;;;-143.77;72.58
13836;BME280;6988;52.614;13.500;2023-04-26T02:53:03;54717.59;;;-143.77;72.71
13836;BME280;6988;52.614;13.500;2023-04-26T02:57:55;54713.47;;;-143.77;72.86
13836;BME280;6988;52.614;13.500;2023-04-26T03:02:50;54707.31;;;-143.77;73.08
13836;BME280;6988;52.614;13.500;2023-04-26T03:07:42;54731.94;;;-143.77;73.27
13836;BME280;6988;52.614;13.500;2023-04-26T03:12:34;54711.44;;;-143.77;73.35
13836;BME280;6988;52.614;13.500;2023-04-26T03:17:26;54701.16;;;-143.77;73.70
13836;BME280;6988;52.614;13.500;2023-04-26T03:22:20;54697.06;;;-143.77;73.67
13836;BME280;6988;52.614;13.500;2023-04-26T03:27:13;54713.47;;;-143.77;73.65
13836;BME280;6988;52.614;13.500;2023-04-26T03:32:05;54676.53;;;-143.77;73.71
13836;BME280;6988;52.614;13.500;2023-04-26T03:36:58;54717.59;;;-143.77;73.96
13836;BME280;6988;52.614;13.500;2023-04-26T03:41:51;54721.69;;;-143.77;73.89
13836;BME280;6988;52.614;13.500;2023-04-26T03:46:43;54701.16;;;-143.77;74.19
13836;BME280;6988;52.614;13.500;2023-04-26T03:51:35;54709.38;;;-143.77;74.49
13836;BME280;6988;52.614;13.500;2023-04-26T03:56:27;54705.28;;;-143.77;74.73
13836;BME280;6988;52.614;13.500;2023-04-26T04:01:21;54717.59;;;-143.77;74.86
13836;BME280;6988;52.614;13.500;2023-04-26T04:06:15;54731.94;;;-143.77;74.88
13836;BME280;6988;52.614;13.500;2023-04-26T04:11:08;54715.53;;;-143.77;74.89
13836;BME280;6988;52.614;13.500;2023-04-26T04:16:02;54709.38;;;-143.77;75.06
13836;BME280;6988;52.614;13.500;2023-04-26T04:20:55;54725.78;;;-143.77;74.89
13836;BME280;6988;52.614;13.500;2023-04-26T04:25:47;54682.69;;;-143.77;74.82
13836;BME280;6988;52.614;13.500;2023-04-26T04:30:41;54684.75;;;-143.77;75.15
13836;BME280;6988;52.614;13.500;2023-04-26T04:35:34;54742.22;;;-143.77;75.23
13836;BME280;6988;52.614;13.500;2023-04-26T04:40:30;54692.97;;;-143.77;74.95
13836;BME280;6988;52.614;13.500;2023-04-26T04:45:22;54684.75;;;-143.77;74.74
13836;BME280;6988;52.614;13.500;2023-04-26T04:50:17;54672.44;;;-143.77;75.06
13836;BME280;6988;52.614;13.500;2023-04-26T05:00:20;54695.00;;;-143.77;74.27
13836;BME280;6988;52.614;13.500;2023-04-26T05:05:32;54682.69;;;-143.77;73.57
13836;BME280;6988;52.614;13.500;2023-04-26T05:10:24;54668.34;;;-143.77;73.31
13836;BME280;6988;52.614;13.500;2023-04-26T05:15:19;54682.69;;;-143.77;72.97
13836;BME280;6988;52.614;13.500;2023-04-26T05:20:11;54643.72;;;-143.77;72.85
13836;BME280;6988;52.614;13.500;2023-04-26T05:25:06;54676.53;;;-143.77;71.59
13836;BME280;6988;52.614;13.500;2023-04-26T05:30:00;54623.19;;;-143.77;71.18
13836;BME280;6988;52.614;13.500;2023-04-26T05:35:12;54623.19;;;-143.77;70.67
13836;BME280;6988;52.614;13.500;2023-04-26T05:40:06;54586.25;;;-143.77;70.42
13836;BME280;6988;52.614;13.500;2023-04-26T05:45:00;54602.66;;;-143.77;70.87
13836;BME280;6988;52.614;13.500;2023-04-26T05:49:52;54664.22;;;-143.77;69.28
13836;BME280;6988;52.614;13.500;2023-04-26T05:54:46;54594.47;;;-143.77;68.76
13836;BME280;6988;52.614;13.500;2023-04-26T05:59:38;54623.19;;;-143.77;68.36
13836;BME280;6988;52.614;13.500;2023-04-26T06:04:30;54600.63;;;-143.77;68.38
13836;BME280;6988;52.614;13.500;2023-04-26T06:09:33;54590.34;;;-143.77;67.57
13836;BME280;6988;52.614;13.500;2023-04-26T06:14:26;54545.22;;;-143.77;67.49
13836;BME280;6988;52.614;13.500;2023-04-26T06:19:18;54537.00;;;-143.77;66.92
13836;BME280;6988;52.614;13.500;2023-04-26T06:24:11;54557.53;;;-143.77;65.32
13836;BME280;6988;52.614;13.500;2023-04-26T06:29:03;54491.88;;;-143.77;64.92
13836;BME280;6988;52.614;13.500;2023-04-26T06:33:57;54446.72;;;-143.77;64.15
13836;BME280;6988;52.614;13.500;2023-04-26T06:38:49;54500.06;;;-143.77;63.78
13836;BME280;6988;52.614;13.500;2023-04-26T06:43:41;54422.09;;;-143.77;62.42
13836;BME280;6988;52.614;13.500;2023-04-26T06:48:43;54409.78;;;-143.77;62.53
13836;BME280;6988;52.614;13.500;2023-04-26T06:53:37;54405.69;;;-143.77;61.00
13836;BME280;6988;52.614;13.500;2023-04-26T06:58:28;54372.84;;;-143.77;60.32
13836;BME280;6988;52.614;13.500;2023-04-26T07:03:20;54356.44;;;-143.77;59.98
13836;BME280;6988;52.614;13.500;2023-04-26T07:08:12;54362.59;;;-143.77;58.53
13836;BME280;6988;52.614;13.500;2023-04-26T07:13:05;54454.94;;;-143.77;58.33
13836;BME280;6988;52.614;13.500;2023-04-26T07:17:57;54327.72;;;-143.77;57.48
13836;BME280;6988;52.614;13.500;2023-04-26T07:22:51;54379.00;;;-143.77;56.60
13836;BME280;6988;52.614;13.500;2023-04-26T07:27:43;54442.63;;;-143.77;58.87
13836;BME280;6988;52.614;13.500;2023-04-26T07:32:36;54438.50;;;-143.77;56.58
13836;BME280;6988;52.614;13.500;2023-04-26T07:37:28;54409.78;;;-143.77;57.82
13836;BME280;6988;52.614;13.500;2023-04-26T07:42:20;54428.25;;;-143.77;57.31
13836;BME280;6988;52.614;13.500;2023-04-26T07:47:12;54415.94;;;-143.77;56.87
13836;BME280;6988;52.614;13.500;2023-04-26T07:52:07;54288.72;;;-143.77;56.16
13836;BME280;6988;52.614;13.500;2023-04-26T08:02:06;54381.06;;;-143.77;54.69
13836;BME280;6988;52.614;13.500;2023-04-26T08:06:57;54294.88;;;-143.77;52.23
13836;BME280;6988;52.614;13.500;2023-04-26T08:11:52;54167.66;;;-143.77;52.93
13836;BME280;6988;52.614;13.500;2023-04-26T08:16:44;54393.38;;;-143.77;49.03
13836;BME280;6988;52.614;13.500;2023-04-26T08:21:37;54192.28;;;-143.77;47.40
13836;BME280;6988;52.614;13.500;2023-04-26T08:26:29;54196.41;;;-143.77;46.60
13836;BME280;6988;52.614;13.500;2023-04-26T08:36:40;54368.75;;;-143.77;45.57
13836;BME280;6988;52.614;13.500;2023-04-26T08:41:37;54381.06;;;-143.77;46.75
13836;BME280;6988;52.614;13.500;2023-04-26T08:46:39;54426.19;;;-143.77;50.23
13836;BME280;6988;52.614;13.500;2023-04-26T08:51:33;54411.84;;;-143.77;52.54
13836;BME280;6988;52.614;13.500;2023-04-26T08:56:28;54415.94;;;-143.77;51.27
13836;BME280;6988;52.614;13.500;2023-04-26T09:01:21;54442.63;;;-143.77;49.09
13836;BME280;6988;52.614;13.500;2023-04-26T09:06:15;54360.53;;;-143.77;50.30
13836;BME280;6988;52.614;13.500;2023-04-26T09:11:06;54331.81;;;-143.77;49.20
13836;BME280;6988;52.614;13.500;2023-04-26T09:16:11;54290.78;;;-143.77;46.79
13836;BME280;6988;52.614;13.500;2023-04-26T09:21:05;54307.19;;;-143.77;44.56
13836;BME280;6988;52.614;13.500;2023-04-26T09:26:17;54340.03;;;-143.77;45.57
13836;BME280;6988;52.614;13.500;2023-04-26T09:31:10;54249.75;;;-143.77;46.13
13836;BME280;6988;52.614;13.500;2023-04-26T09:36:11;54340.03;;;-143.77;45.90
13836;BME280;6988;52.614;13.500;2023-04-26T09:41:03;54376.97;;;-143.77;46.24
13836;BME280;6988;52.614;13.500;2023-04-26T09:45:56;54426.19;;;-143.77;49.94
13836;BME280;6988;52.614;13.500;2023-04-26T09:50:51;54405.69;;;-143.77;53.46
13836;BME280;6988;52.614;13.500;2023-04-26T09:55:43;54192.28;;;-143.77;54.53
13836;BME280;6988;52.614;13.500;2023-04-26T10:00:40;54093.81;;;-143.77;49.69
13836;BME280;6988;52.614;13.500;2023-04-26T10:05:32;54264.09;;;-143.77;45.95
13836;BME280;6988;52.614;13.500;2023-04-26T10:10:26;54298.97;;;-143.77;46.11
13836;BME280;6988;52.614;13.500;2023-04-26T10:15:17;54344.13;;;-143.77;47.20
13836;BME280;6988;52.614;13.500;2023-04-26T10:20:12;54356.44;;;-143.77;45.83
13836;BME280;6988;52.614;13.500;2023-04-26T10:25:07;54352.34;;;-143.77;44.65
13836;BME280;6988;52.614;13.500;2023-04-26T10:30:09;54344.13;;;-143.77;46.42
13836;BME280;6988;52.614;13.500;2023-04-26T10:35:09;54381.06;;;-143.77;46.02
13836;BME280;6988;52.614;13.500;2023-04-26T10:40:23;54370.81;;;-143.77;44.93
13836;BME280;6988;52.614;13.500;2023-04-26T10:45:27;54167.66;;;-143.77;43.79
13836;BME280;6988;52.614;13.500;2023-04-26T10:50:19;54294.88;;;-143.77;43.89
13836;BME280;6988;52.614;13.500;2023-04-26T10:55:11;54282.56;;;-143.77;43.96
13836;BME280;6988;52.614;13.500;2023-04-26T11:00:29;54313.34;;;-143.77;43.86
13836;BME280;6988;52.614;13.500;2023-04-26T11:05:53;54270.25;;;-143.77;44.50
13836;BME280;6988;52.614;13.500;2023-04-26T11:10:50;54225.13;;;-143.77;44.08
13836;BME280;6988;52.614;13.500;2023-04-26T11:15:44;54048.66;;;-143.77;42.00
13836;BME280;6988;52.614;13.500;2023-04-26T11:20:37;54013.78;;;-143.77;40.71
13836;BME280;6988;52.614;13.500;2023-04-26T11:25:29;54247.69;;;-143.77;41.38
13836;BME280;6988;52.614;13.500;2023-04-26T11:30:21;54301.03;;;-143.77;42.78
13836;BME280;6988;52.614;13.500;2023-04-26T11:35:15;54315.41;;;-143.77;43.57
13836;BME280;6988;52.614;13.500;2023-04-26T11:40:09;54327.72;;;-143.77;43.81
13836;BME280;6988;52.614;13.500;2023-04-26T11:45:02;54311.28;;;-143.77;42.53
13836;BME280;6988;52.614;13.500;2023-04-26T11:49:57;54294.88;;;-143.77;43.20
13836;BME280;6988;52.614;13.500;2023-04-26T11:55:00;54186.13;;;-143.77;42.61
13836;BME280;6988;52.614;13.500;2023-04-26T12:00:06;54268.22;;;-143.77;42.74
13836;BME280;6988;52.614;13.500;2023-04-26T12:05:00;54282.56;;;-143.77;43.09
13836;BME280;6988;52.614;13.500;2023-04-26T12:09:54;54303.09;;;-143.77;44.14
13836;BME280;6988;52.614;13.500;2023-04-26T12:14:46;54262.06;;;-143.77;43.66
13836;BME280;6988;52.614;13.500;2023-04-26T12:19:39;54309.25;;;-143.77;43.66
13836;BME280;6988;52.614;13.500;2023-04-26T12:24:32;54294.88;;;-143.77;43.84
13836;BME280;6988;52.614;13.500;2023-04-26T12:29:27;54317.44;;;-143.77;42.59
13836;BME280;6988;52.614;13.500;2023-04-26T12:34:20;54274.38;;;-143.77;42.91
13836;BME280;6988;52.614;13.500;2023-04-26T12:39:12;54257.94;;;-143.77;41.82
13836;BME280;6988;52.614;13.500;2023-04-26T12:44:06;54278.47;;;-143.77;41.93
13836;BME280;6988;52.614;13.500;2023-04-26T12:54:27;54333.88;;;-143.77;42.18
13836;BME280;6988;52.614;13.500;2023-04-26T12:59:19;54376.97;;;-143.77;42.19
13836;BME280;6988;52.614;13.500;2023-04-26T13:04:11;54298.97;;;-143.77;43.32
13836;BME280;6988;52.614;13.500;2023-04-26T13:09:02;54290.78;;;-143.77;42.19
13836;BME280;6988;52.614;13.500;2023-04-26T13:13:58;54307.19;;;-143.77;43.27
13836;BME280;6988;52.614;13.500;2023-04-26T13:18:51;54262.06;;;-143.77;40.38
13836;BME280;6988;52.614;13.500;2023-04-26T13:23:43;54114.31;;;-143.77;39.26
13836;BME280;6988;52.614;13.500;2023-04-26T13:28:36;54264.09;;;-143.77;38.74
13836;BME280;6988;52.614;13.500;2023-04-26T13:33:29;54268.22;;;-143.77;38.82
13836;BME280;6988;52.614;13.500;2023-04-26T13:38:21;54323.59;;;-143.77;40.05
13836;BME280;6988;52.614;13.500;2023-04-26T13:43:13;54348.22;;;-143.77;41.36
13836;BME280;6988;52.614;13.500;2023-04-26T13:48:05;54323.59;;;-143.77;41.99
13836;BME280;6988;52.614;13.500;2023-04-26T13:52:58;54313.34;;;-143.77;43.15
13836;BME280;6988;52.614;13.500;2023-04-26T13:57:51;54331.81;;;-143.77;42.88
13836;BME280;6988;52.614;13.500;2023-04-26T14:02:43;54196.41;;;-143.77;42.08
13836;BME280;6988;52.614;13.500;2023-04-26T14:07:35;54282.56;;;-143.77;42.02
13836;BME280;6988;52.614;13.500;2023-04-26T14:12:28;54282.56;;;-143.77;42.29
13836;BME280;6988;52.614;13.500;2023-04-26T14:17:20;54196.41;;;-143.77;41.80
13836;BME280;6988;52.614;13.500;2023-04-26T14:22:11;54192.28;;;-143.77;41.62
13836;BME280;6988;52.614;13.500;2023-04-26T14:27:06;54237.44;;;-143.77;40.80
13836;BME280;6988;52.614;13.500;2023-04-26T14:31:59;54229.22;;;-143.77;39.47
13836;BME280;6988;52.614;13.500;2023-04-26T14:36:51;54169.72;;;-143.77;40.33
13836;BME280;6988;52.614;13.500;2023-04-26T14:41:43;54167.66;;;-143.77;39.43
13836;BME280;6988;52.614;13.500;2023-04-26T14:46:35;54243.59;;;-143.77;40.70
13836;BME280;6988;52.614;13.500;2023-04-26T14:51:28;54237.44;;;-143.77;39.33
13836;BME280;6988;52.614;13.500;2023-04-26T14:56:21;54151.25;;;-143.77;40.18
13836;BME280;6988;52.614;13.500;2023-04-26T15:01:13;54221.03;;;-143.77;39.07
13836;BME280;6988;52.614;13.500;2023-04-26T15:06:07;54229.22;;;-143.77;39.45
13836;BME280;6988;52.614;13.500;2023-04-26T15:11:00;54260.00;;;-143.77;40.11
13836;BME280;6988;52.614;13.500;2023-04-26T15:15:52;54270.25;;;-143.77;40.43
13836;BME280;6988;52.614;13.500;2023-04-26T15:20:44;54294.88;;;-143.77;41.75
13836;BME280;6988;52.614;13.500;2023-04-26T15:25:35;54325.66;;;-143.77;41.96
13836;BME280;6988;52.614;13.500;2023-04-26T15:30:29;54323.59;;;-143.77;42.02
13836;BME280;6988;52.614;13.500;2023-04-26T15:35:20;54309.25;;;-143.77;42.30
13836;BME280;6988;52.614;13.500;2023-04-26T15:40:14;54335.91;;;-143.77;43.07
13836;BME280;6988;52.614;13.500;2023-04-26T15:45:07;54358.50;;;-143.77;43.13
13836;BME280;6988;52.614;13.500;2023-04-26T15:50:01;54360.53;;;-143.77;43.54
13836;BME280;6988;52.614;13.500;2023-04-26T15:54:54;54387.22;;;-143.77;44.48
13836;BME280;6988;52.614;13.500;2023-04-26T15:59:46;54352.34;;;-143.77;43.85
13836;BME280;6988;52.614;13.500;2023-04-26T16:04:37;54356.44;;;-143.77;44.33
13836;BME280;6988;52.614;13.500;2023-04-26T16:09:31;54319.50;;;-143.77;42.96
13836;BME280;6988;52.614;13.500;2023-04-26T16:14:22;54364.66;;;-143.77;43.68
13836;BME280;6988;52.614;13.500;2023-04-26T16:19:14;54360.53;;;-143.77;43.74
13836;BME280;6988;52.614;13.500;2023-04-26T16:24:07;54385.16;;;-143.77;44.50
13836;BME280;6988;52.614;13.500;2023-04-26T16:29:02;54434.41;;;-143.77;44.14
13836;BME280;6988;52.614;13.500;2023-04-26T16:33:54;54364.66;;;-143.77;44.97
13836;BME280;6988;52.614;13.500;2023-04-26T16:38:46;54354.38;;;-143.77;45.65
13836;BME280;6988;52.614;13.500;2023-04-26T16:43:38;54364.66;;;-143.77;45.51
13836;BME280;6988;52.614;13.500;2023-04-26T16:48:32;54401.56;;;-143.77;45.63
13836;BME280;6988;52.614;13.500;2023-04-26T16:53:24;54385.16;;;-143.77;45.34
13836;BME280;6988;52.614;13.500;2023-04-26T16:58:16;54403.63;;;-143.77;45.93
13836;BME280;6988;52.614;13.500;2023-04-26T17:03:09;54381.06;;;-143.77;45.61
13836;BME280;6988;52.614;13.500;2023-04-26T17:08:02;54403.63;;;-143.77;46.11
13836;BME280;6988;52.614;13.500;2023-04-26T17:12:54;54385.16;;;-143.77;45.86
13836;BME280;6988;52.614;13.500;2023-04-26T17:17:46;54389.28;;;-143.77;45.56
13836;BME280;6988;52.614;13.500;2023-04-26T17:22:37;54403.63;;;-143.77;46.29
13836;BME280;6988;52.614;13.500;2023-04-26T17:27:31;54401.56;;;-143.77;45.69
13836;BME280;6988;52.614;13.500;2023-04-26T17:32:23;54409.78;;;-143.77;44.71
13836;BME280;6988;52.614;13.500;2023-04-26T17:37:15;54383.13;;;-143.77;44.95
13836;BME280;6988;52.614;13.500;2023-04-26T17:42:07;54411.84;;;-143.77;45.29
13836;BME280;6988;52.614;13.500;2023-04-26T17:47:00;54418.00;;;-143.77;46.20
13836;BME280;6988;52.614;13.500;2023-04-26T17:51:52;54438.50;;;-143.77;46.75
13836;BME280;6988;52.614;13.500;2023-04-26T17:56:43;54420.03;;;-143.77;46.75
13836;BME280;6988;52.614;13.500;2023-04-26T18:01:35;54473.41;;;-143.77;47.82
13836;BME280;6988;52.614;13.500;2023-04-26T18:06:28;54467.25;;;-143.77;47.84
13836;BME280;6988;52.614;13.500;2023-04-26T18:11:20;54454.94;;;-143.77;47.72
13836;BME280;6988;52.614;13.500;2023-04-26T18:16:12;54512.38;;;-143.77;48.59
13836;BME280;6988;52.614;13.500;2023-04-26T18:21:06;54498.03;;;-143.77;48.33
13836;BME280;6988;52.614;13.500;2023-04-26T18:25:59;54532.91;;;-143.77;49.64
13836;BME280;6988;52.614;13.500;2023-04-26T18:30:55;54452.88;;;-143.77;50.63
13836;BME280;6988;52.614;13.500;2023-04-26T18:35:47;54469.28;;;-143.77;51.27
13836;BME280;6988;52.614;13.500;2023-04-26T18:40:42;54506.22;;;-143.77;51.59
13836;BME280;6988;52.614;13.500;2023-04-26T18:45:35;54498.03;;;-143.77;52.17
13836;BME280;6988;52.614;13.500;2023-04-26T18:50:27;54475.44;;;-143.77;53.35
13836;BME280;6988;52.614;13.500;2023-04-26T18:55:18;54493.91;;;-143.77;53.90
13836;BME280;6988;52.614;13.500;2023-04-26T19:00:11;54516.50;;;-143.77;54.64
13836;BME280;6988;52.614;13.500;2023-04-26T19:05:05;54491.88;;;-143.77;55.28
13836;BME280;6988;52.614;13.500;2023-04-26T19:09:57;54483.66;;;-143.77;55.46
13836;BME280;6988;52.614;13.500;2023-04-26T19:14:52;54510.34;;;-143.77;56.12
13836;BME280;6988;52.614;13.500;2023-04-26T19:19:44;54491.88;;;-143.77;56.64
13836;BME280;6988;52.614;13.500;2023-04-26T19:24:37;54534.94;;;-143.77;57.29
13836;BME280;6988;52.614;13.500;2023-04-26T19:29:29;54526.75;;;-143.77;57.55
13836;BME280;6988;52.614;13.500;2023-04-26T19:34:21;54508.28;;;-143.77;57.95
13836;BME280;6988;52.614;13.500;2023-04-26T19:39:13;54557.53;;;-143.77;58.08
13836;BME280;6988;52.614;13.500;2023-04-26T19:44:06;54524.69;;;-143.77;57.70
13836;BME280;6988;52.614;13.500;2023-04-26T19:48:58;54504.19;;;-143.77;57.86
13836;BME280;6988;52.614;13.500;2023-04-26T19:53:50;54541.09;;;-143.77;58.36
13836;BME280;6988;52.614;13.500;2023-04-26T19:58:42;54530.84;;;-143.77;58.91
13836;BME280;6988;52.614;13.500;2023-04-26T20:03:35;54543.16;;;-143.77;58.70
13836;BME280;6988;52.614;13.500;2023-04-26T20:08:28;54522.63;;;-143.77;58.53
13836;BME280;6988;52.614;13.500;2023-04-26T20:13:20;54543.16;;;-143.77;59.54
13836;BME280;6988;52.614;13.500;2023-04-26T20:18:11;54547.25;;;-143.77;59.12
13836;BME280;6988;52.614;13.500;2023-04-26T20:23:05;54561.63;;;-143.77;59.66
13836;BME280;6988;52.614;13.500;2023-04-26T20:27:56;54590.34;;;-143.77;59.74
13836;BME280;6988;52.614;13.500;2023-04-26T20:32:51;54526.75;;;-143.77;60.21
13836;BME280;6988;52.614;13.500;2023-04-26T20:37:43;54606.78;;;-143.77;60.17
13836;BME280;6988;52.614;13.500;2023-04-26T20:42:36;54528.78;;;-143.77;61.09
13836;BME280;6988;52.614;13.500;2023-04-26T20:47:28;54582.16;;;-143.77;61.02
13836;BME280;6988;52.614;13.500;2023-04-26T20:52:20;54559.56;;;-143.77;61.36
13836;BME280;6988;52.614;13.500;2023-04-26T20:57:12;54590.34;;;-143.77;61.74
13836;BME280;6988;52.614;13.500;2023-04-26T21:02:05;54561.63;;;-143.77;61.58
13836;BME280;6988;52.614;13.500;2023-04-26T21:06:58;54553.41;;;-143.77;62.02
13836;BME280;6988;52.614;13.500;2023-04-26T21:11:50;54569.84;;;-143.77;62.17
13836;BME280;6988;52.614;13.500;2023-04-26T21:16:41;54592.41;;;-143.77;62.02
13836;BME280;6988;52.614;13.500;2023-04-26T21:21:35;54569.84;;;-143.77;62.51
13836;BME280;6988;52.614;13.500;2023-04-26T21:26:27;54578.03;;;-143.77;62.40
13836;BME280;6988;52.614;13.500;2023-04-26T21:31:18;54573.94;;;-143.77;62.29
13836;BME280;6988;52.614;13.500;2023-04-26T21:41:27;54578.03;;;-143.77;62.65
13836;BME280;6988;52.614;13.500;2023-04-26T22:04:04;54571.88;;;-143.77;63.19
13836;BME280;6988;52.614;13.500;2023-04-26T22:08:56;54602.66;;;-143.77;63.67
13836;BME280;6988;52.614;13.500;2023-04-26T22:13:48;54623.19;;;-143.77;63.05
13836;BME280;6988;52.614;13.500;2023-04-26T22:18:40;54557.53;;;-143.77;63.60
13836;BME280;6988;52.614;13.500;2023-04-26T22:23:33;54571.88;;;-143.77;63.52
13836;BME280;6988;52.614;13.500;2023-04-26T22:28:25;54569.84;;;-143.77;63.43
13836;BME280;6988;52.614;13.500;2023-04-26T22:33:17;54571.88;;;-143.77;63.55
13836;BME280;6988;52.614;13.500;2023-04-26T22:38:09;54549.31;;;-143.77;63.56
13836;BME280;6988;52.614;13.500;2023-04-26T22:43:02;54627.28;;;-143.77;64.45
13836;BME280;6988;52.614;13.500;2023-04-26T22:47:55;54649.88;;;-143.77;63.33
13836;BME280;6988;52.614;13.500;2023-04-26T22:52:47;54549.31;;;-143.77;63.49
13836;BME280;6988;52.614;13.500;2023-04-26T22:57:40;54590.34;;;-143.77;63.87
13836;BME280;6988;52.614;13.500;2023-04-26T23:02:33;54557.53;;;-143.77;63.74
13836;BME280;6988;52.614;13.500;2023-04-26T23:07:25;54547.25;;;-143.77;64.25
13836;BME280;6988;52.614;13.500;2023-04-26T23:12:17;54569.84;;;-143.77;64.27
13836;BME280;6988;52.614;13.500;2023-04-26T23:17:09;54586.25;;;-143.77;63.49
13836;BME280;6988;52.614;13.500;2023-04-26T23:22:03;54563.69;;;-143.77;63.69
13836;BME280;6988;52.614;13.500;2023-04-26T23:26:55;54571.88;;;-143.77;64.40
13836;BME280;6988;52.614;13.500;2023-04-26T23:31:47;54580.09;;;-143.77;64.42
13836;BME280;6988;52.614;13.500;2023-04-26T23:36:39;54561.63;;;-143.77;64.59
13836;BME280;6988;52.614;13.500;2023-04-26T23:41:32;54571.88;;;-143.77;64.73
13836;BME280;6988;52.614;13.500;2023-04-26T23:46:23;54600.63;;;-143.77;64.94
13836;BME280;6988;52.614;13.500;2023-04-26T23:51:15;54588.31;;;-143.77;64.53
13836;BME280;6988;52.614;13.500;2023-04-26T23:56:07;54576.00;;;-143.77;64.96
